Time;durP1;ratioP1;P1;durP2;ratioP2;P2;SDS_P1;SDS_P2;PMS_P1;PMS_P2;Temp;Humidity;BMP_temperature;BMP_pressure;BME280_temperature;BME280_humidity;BME280_pressure;Samples;Min_cycle;Max_cycle;Signal;HPM_P1;HPM_P2
2021/08/29 04:02:45;;;;;;;4.97;4.50;;;14.60;99.90;;;;;;6184199;23;20426;-71
2021/08/29 04:05:12;;;;;;;5.30;4.80;;;14.60;99.90;;;;;;6185422;23;20801;-72
2021/08/29 04:07:39;;;;;;;5.53;4.77;;;14.60;99.90;;;;;;6184975;23;20458;-71
2021/08/29 04:10:09;;;;;;;4.53;4.27;;;14.60;99.90;;;;;;6185134;23;20564;-72
2021/08/29 04:12:38;;;;;;;5.50;5.00;;;14.60;99.90;;;;;;6155257;23;20423;-71
2021/08/29 04:15:06;;;;;;;5.67;5.13;;;14.60;99.90;;;;;;6154508;23;20948;-72
2021/08/29 04:17:33;;;;;;;5.27;4.90;;;14.60;99.90;;;;;;6154694;23;20975;-71
2021/08/29 04:20:03;;;;;;;4.77;4.37;;;14.60;99.90;;;;;;6155238;23;20423;-72
2021/08/29 04:22:30;;;;;;;7.07;6.37;;;14.50;99.90;;;;;;6154860;23;20478;-71
2021/08/29 04:24:58;;;;;;;4.80;4.40;;;14.60;99.90;;;;;;6165253;23;20860;-72
2021/08/29 04:27:25;;;;;;;5.30;4.90;;;14.60;99.90;;;;;;6155043;23;20492;-71
2021/08/29 04:29:52;;;;;;;5.40;4.90;;;14.60;99.90;;;;;;6155081;23;20427;-72
2021/08/29 04:32:19;;;;;;;5.50;4.83;;;14.50;99.90;;;;;;6153539;23;20446;-71
2021/08/29 04:34:46;;;;;;;4.73;4.30;;;14.60;99.90;;;;;;6155044;23;20446;-71
2021/08/29 04:37:14;;;;;;;5.33;4.67;;;14.50;99.90;;;;;;6155521;23;20548;-71
2021/08/29 04:39:42;;;;;;;4.73;4.33;;;14.50;99.90;;;;;;6155108;23;20485;-71
2021/08/29 04:42:09;;;;;;;4.73;4.43;;;14.50;99.90;;;;;;6155001;23;20477;-71
2021/08/29 04:44:36;;;;;;;5.10;4.07;;;14.60;99.90;;;;;;6164319;23;20427;-71
2021/08/29 04:47:03;;;;;;;4.53;4.13;;;14.60;99.90;;;;;;6164895;23;20415;-71
2021/08/29 04:49:29;;;;;;;4.90;4.60;;;14.60;99.90;;;;;;6154759;23;20473;-72
2021/08/29 04:51:56;;;;;;;4.33;4.10;;;14.50;99.90;;;;;;6155380;23;20665;-72
2021/08/29 04:54:24;;;;;;;4.40;4.10;;;14.60;99.90;;;;;;6154768;23;20442;-71
2021/08/29 04:56:51;;;;;;;6.77;4.70;;;14.60;99.90;;;;;;6155119;23;20494;-72
2021/08/29 04:59:17;;;;;;;5.13;4.77;;;14.60;99.90;;;;;;6154323;23;20576;-71
2021/08/29 05:01:44;;;;;;;4.10;3.90;;;14.60;99.90;;;;;;6154523;23;20450;-71
2021/08/29 05:04:10;;;;;;;4.97;4.60;;;14.60;99.90;;;;;;6154154;23;20423;-71
2021/08/29 05:06:37;;;;;;;4.63;4.27;;;14.60;99.90;;;;;;6154963;23;20438;-72
2021/08/29 05:09:04;;;;;;;4.70;4.33;;;14.60;99.90;;;;;;6154732;23;20423;-71
2021/08/29 05:11:32;;;;;;;5.33;4.87;;;14.60;99.90;;;;;;6154899;23;20450;-71
2021/08/29 05:13:58;;;;;;;6.20;3.97;;;14.60;99.90;;;;;;6154300;23;20458;-71
2021/08/29 05:16:25;;;;;;;4.40;4.00;;;14.60;99.90;;;;;;6154909;23;20569;-71
2021/08/29 05:18:51;;;;;;;8.33;4.70;;;14.60;99.90;;;;;;6154289;23;20422;-71
2021/08/29 05:21:18;;;;;;;4.17;3.90;;;14.60;99.90;;;;;;6154773;23;20443;-72
2021/08/29 05:23:45;;;;;;;3.63;3.50;;;14.60;99.90;;;;;;6154413;23;20430;-71
2021/08/29 05:26:12;;;;;;;3.87;3.57;;;14.60;99.90;;;;;;6154355;23;20911;-71
2021/08/29 05:28:40;;;;;;;3.90;3.50;;;14.60;99.90;;;;;;6154142;23;20454;-71
2021/08/29 05:31:06;;;;;;;3.40;3.23;;;14.70;99.90;;;;;;6154842;23;20501;-71
2021/08/29 05:33:33;;;;;;;3.43;3.33;;;14.70;99.90;;;;;;6153753;23;20901;-72
2021/08/29 05:36:00;;;;;;;3.13;2.93;;;14.70;99.90;;;;;;6155081;23;20442;-71
2021/08/29 05:38:26;;;;;;;3.53;3.40;;;14.70;99.90;;;;;;6154781;23;20450;-69
2021/08/29 05:40:53;;;;;;;3.60;3.37;;;14.70;99.90;;;;;;6154605;23;20525;-68
2021/08/29 05:43:20;;;;;;;3.70;3.50;;;14.70;99.90;;;;;;6154222;23;20422;-69
2021/08/29 05:45:48;;;;;;;4.03;3.37;;;14.70;99.90;;;;;;6153723;23;20877;-71
2021/08/29 05:48:14;;;;;;;3.80;3.60;;;14.70;99.90;;;;;;6154231;23;20426;-71
2021/08/29 05:50:41;;;;;;;3.33;3.13;;;14.80;99.90;;;;;;6154638;23;20442;-69
2021/08/29 05:53:07;;;;;;;3.17;3.07;;;14.80;99.90;;;;;;6154274;23;20438;-70
2021/08/29 05:55:34;;;;;;;2.93;2.83;;;14.80;99.90;;;;;;6154622;23;20796;-71
2021/08/29 05:58:01;;;;;;;3.40;3.30;;;14.80;99.90;;;;;;6154641;23;20422;-71
2021/08/29 06:00:27;;;;;;;2.70;2.60;;;14.80;99.90;;;;;;6153906;23;20447;-71
2021/08/29 06:02:55;;;;;;;2.93;2.80;;;14.80;99.90;;;;;;6153826;23;20407;-71
2021/08/29 06:05:22;;;;;;;2.90;2.80;;;14.80;99.90;;;;;;6154198;23;20880;-71
2021/08/29 06:07:49;;;;;;;3.00;2.90;;;14.80;99.90;;;;;;6154248;23;20497;-71
2021/08/29 06:10:15;;;;;;;3.03;2.80;;;14.80;99.90;;;;;;6154124;23;20434;-71
2021/08/29 06:12:42;;;;;;;2.30;2.20;;;14.80;99.90;;;;;;6154157;23;20430;-70
2021/08/29 06:15:09;;;;;;;2.13;2.10;;;14.80;99.90;;;;;;6153948;23;20547;-70
2021/08/29 06:17:36;;;;;;;2.10;2.00;;;14.80;99.90;;;;;;6153758;23;20807;-71
2021/08/29 06:20:05;;;;;;;2.47;2.47;;;14.90;99.90;;;;;;6154656;23;20427;-71
2021/08/29 06:22:32;;;;;;;2.30;2.30;;;14.90;99.90;;;;;;6154214;23;20450;-70
2021/08/29 06:24:59;;;;;;;2.83;2.63;;;14.90;99.90;;;;;;6154585;23;20423;-71
2021/08/29 06:27:25;;;;;;;2.00;1.97;;;14.90;99.90;;;;;;6163989;23;20442;-71
2021/08/29 06:29:52;;;;;;;2.33;2.30;;;14.90;99.90;;;;;;6154090;23;20464;-71
2021/08/29 06:32:19;;;;;;;2.30;2.30;;;14.90;99.90;;;;;;6155065;23;20446;-71
2021/08/29 06:34:45;;;;;;;2.73;2.53;;;14.90;99.90;;;;;;6154668;23;20426;-71
2021/08/29 06:37:13;;;;;;;1.97;1.87;;;14.90;99.90;;;;;;6154168;23;20881;-70
2021/08/29 06:39:40;;;;;;;2.70;2.60;;;15.00;99.90;;;;;;6154341;23;20431;-71
2021/08/29 06:42:07;;;;;;;2.67;2.47;;;15.00;99.90;;;;;;6154319;23;20995;-71
2021/08/29 06:44:34;;;;;;;2.60;2.50;;;15.00;99.90;;;;;;6153987;23;20481;-71
2021/08/29 06:47:00;;;;;;;2.10;2.10;;;15.10;99.90;;;;;;6154561;23;20485;-71
2021/08/29 06:49:27;;;;;;;1.87;1.87;;;15.10;99.90;;;;;;6153896;23;20426;-71
2021/08/29 06:51:54;;;;;;;1.90;1.90;;;15.00;99.90;;;;;;6154331;23;20742;-70
2021/08/29 06:54:22;;;;;;;2.67;2.40;;;15.10;99.90;;;;;;6154201;23;20422;-71
2021/08/29 06:56:48;;;;;;;2.10;2.00;;;15.10;99.90;;;;;;6155946;23;20447;-71
2021/08/29 06:59:15;;;;;;;2.13;2.13;;;15.10;99.90;;;;;;6155482;23;20941;-71
2021/08/29 07:01:41;;;;;;;2.70;2.60;;;15.10;99.90;;;;;;6155846;23;20450;-70
2021/08/29 07:04:08;;;;;;;2.20;2.20;;;15.20;99.90;;;;;;6155458;23;20418;-71
2021/08/29 07:06:36;;;;;;;1.97;1.87;;;15.20;99.90;;;;;;6155932;23;20443;-70
2021/08/29 07:09:03;;;;;;;2.10;2.10;;;15.20;99.90;;;;;;6155849;23;20430;-71
2021/08/29 07:11:31;;;;;;;2.00;1.90;;;15.20;99.90;;;;;;6155619;23;20932;-71
2021/08/29 07:13:57;;;;;;;1.90;1.90;;;15.20;99.90;;;;;;6155103;23;21057;-71
2021/08/29 07:16:30;;;;;;;2.00;2.00;;;15.30;99.90;;;;;;6156145;23;20450;-71
2021/08/29 07:18:57;;;;;;;1.60;1.50;;;15.30;99.90;;;;;;6156711;23;20729;-70
2021/08/29 07:21:24;;;;;;;3.07;2.10;;;15.30;99.90;;;;;;6155692;23;20445;-70
2021/08/29 07:23:50;;;;;;;2.23;2.13;;;15.30;99.90;;;;;;6155788;23;20456;-71
2021/08/29 07:26:17;;;;;;;2.17;2.17;;;15.40;99.90;;;;;;6156254;23;20444;-71
2021/08/29 07:28:46;;;;;;;1.67;1.67;;;15.40;99.90;;;;;;6155320;23;20477;-70
2021/08/29 07:31:13;;;;;;;1.80;1.80;;;15.40;99.90;;;;;;6165411;23;20439;-70
2021/08/29 07:33:40;;;;;;;2.10;2.00;;;15.50;99.90;;;;;;6155034;23;20430;-70
2021/08/29 07:36:07;;;;;;;1.70;1.70;;;15.50;99.90;;;;;;6155921;23;20496;-70
2021/08/29 07:38:34;;;;;;;1.33;1.33;;;15.50;99.90;;;;;;6155678;23;20904;-71
2021/08/29 07:41:01;;;;;;;1.90;1.90;;;15.60;99.90;;;;;;6156650;23;20442;-71
2021/08/29 07:43:28;;;;;;;1.90;1.60;;;15.60;99.90;;;;;;6155636;23;20437;-71
2021/08/29 07:45:56;;;;;;;1.30;1.30;;;15.60;99.90;;;;;;6155083;23;20927;-71
2021/08/29 07:48:22;;;;;;;1.33;1.33;;;15.70;99.90;;;;;;6155231;23;20916;-71
2021/08/29 07:50:49;;;;;;;1.17;1.17;;;15.70;99.90;;;;;;6155832;23;20815;-70
2021/08/29 07:53:16;;;;;;;1.80;1.73;;;15.80;99.90;;;;;;6155778;23;20431;-71
2021/08/29 07:55:42;;;;;;;1.67;1.57;;;15.80;99.90;;;;;;6155830;23;20443;-70
2021/08/29 07:58:09;;;;;;;1.43;1.43;;;15.80;99.90;;;;;;6155340;23;20431;-70
2021/08/29 08:00:36;;;;;;;1.73;1.70;;;15.90;99.90;;;;;;6155097;23;20459;-70
2021/08/29 08:03:04;;;;;;;1.53;1.53;;;16.00;99.90;;;;;;6155079;23;20434;-70
2021/08/29 08:05:31;;;;;;;1.47;1.47;;;16.00;99.90;;;;;;6155609;23;20419;-71
2021/08/29 08:07:59;;;;;;;1.20;1.20;;;16.10;99.90;;;;;;6154830;23;20502;-70
2021/08/29 08:10:26;;;;;;;1.40;1.40;;;16.20;99.90;;;;;;6155365;23;20694;-70
2021/08/29 08:12:52;;;;;;;1.13;1.03;;;16.20;99.90;;;;;;6164823;23;20457;-70
2021/08/29 08:15:19;;;;;;;1.27;1.27;;;16.20;99.90;;;;;;6154937;23;20453;-70
2021/08/29 08:17:46;;;;;;;1.40;1.40;;;16.20;99.90;;;;;;6155062;23;20423;-70
2021/08/29 08:20:14;;;;;;;2.10;1.60;;;16.30;99.90;;;;;;6155704;23;20427;-69
2021/08/29 08:22:41;;;;;;;1.27;1.27;;;16.30;99.90;;;;;;6154810;23;20439;-71
2021/08/29 08:25:09;;;;;;;1.63;1.53;;;16.30;99.90;;;;;;6155607;23;20448;-71
2021/08/29 08:27:36;;;;;;;1.00;1.00;;;16.30;99.90;;;;;;6155463;23;20422;-71
2021/08/29 08:30:05;;;;;;;1.20;1.20;;;16.40;99.90;;;;;;6164456;23;20426;-70
2021/08/29 08:32:31;;;;;;;1.50;1.37;;;16.60;99.90;;;;;;6154508;23;20522;-70
2021/08/29 08:34:58;;;;;;;1.00;1.00;;;16.70;99.90;;;;;;6155293;23;20438;-70
2021/08/29 08:37:26;;;;;;;1.40;1.40;;;16.80;99.90;;;;;;6164459;23;20446;-69
2021/08/29 08:39:53;;;;;;;1.40;0.93;;;17.00;99.90;;;;;;6154909;23;20426;-69
2021/08/29 08:42:20;;;;;;;1.03;1.03;;;17.00;99.90;;;;;;6164424;23;20455;-70
2021/08/29 08:44:47;;;;;;;0.80;0.80;;;17.00;99.90;;;;;;6154630;23;20525;-69
2021/08/29 08:47:17;;;;;;;1.03;1.03;;;17.00;99.90;;;;;;6155200;23;20441;-69
2021/08/29 08:49:44;;;;;;;0.90;0.90;;;17.00;99.90;;;;;;6155304;23;20489;-69
2021/08/29 08:52:17;;;;;;;0.83;0.83;;;17.10;99.90;;;;;;6154284;23;20446;-69
2021/08/29 08:54:47;;;;;;;0.60;0.60;;;17.10;99.90;;;;;;6154694;23;20407;-69
2021/08/29 08:57:17;;;;;;;1.00;1.00;;;17.20;99.90;;;;;;6154762;23;20467;-70
2021/08/29 08:59:44;;;;;;;0.57;0.57;;;17.30;99.90;;;;;;6154519;23;20450;-69
2021/08/29 09:02:11;;;;;;;0.50;0.50;;;17.50;99.90;;;;;;6154423;23;20952;-69
2021/08/29 09:04:38;;;;;;;0.40;0.40;;;17.70;99.90;;;;;;6154661;23;20830;-69
2021/08/29 09:07:05;;;;;;;2.47;0.97;;;18.00;99.90;;;;;;6155756;23;20802;-69
2021/08/29 09:09:32;;;;;;;0.93;0.73;;;18.00;99.90;;;;;;6155371;23;20461;-69
2021/08/29 09:12:01;;;;;;;1.03;0.50;;;18.00;99.90;;;;;;6155113;23;20960;-69
2021/08/29 09:14:39;;;;;;;0.50;0.50;;;17.90;99.90;;;;;;6154887;23;20422;-69
2021/08/29 09:17:25;;;;;;;0.60;0.60;;;17.80;99.90;;;;;;6155494;23;20490;-69
2021/08/29 09:20:13;;;;;;;0.30;0.30;;;17.80;99.90;;;;;;6155447;23;20471;-70
2021/08/29 09:22:40;;;;;;;0.40;0.40;;;17.80;99.90;;;;;;6155046;23;20438;-69
2021/08/29 09:25:12;;;;;;;0.50;0.50;;;17.80;99.90;;;;;;6155052;23;20503;-68
2021/08/29 09:27:42;;;;;;;0.43;0.43;;;17.80;99.90;;;;;;6154756;23;20407;-69
2021/08/29 09:30:10;;;;;;;0.57;0.57;;;17.80;99.90;;;;;;6164117;23;20913;-69
2021/08/29 09:32:49;;;;;;;0.50;0.50;;;17.70;99.90;;;;;;6154196;23;20984;-69
2021/08/29 09:35:17;;;;;;;0.90;0.90;;;17.70;99.90;;;;;;6155264;23;20418;-69
2021/08/29 09:37:43;;;;;;;0.50;0.50;;;17.60;99.90;;;;;;6154896;23;20482;-69
2021/08/29 09:40:19;;;;;;;0.60;0.60;;;17.50;99.90;;;;;;6155679;23;20426;-69
2021/08/29 09:42:50;;;;;;;0.60;0.60;;;17.40;99.90;;;;;;6156407;23;20425;-69
2021/08/29 09:45:24;;;;;;;0.60;0.60;;;17.40;99.90;;;;;;6156763;23;20407;-69
2021/08/29 09:47:52;;;;;;;0.63;0.63;;;17.40;99.90;;;;;;6155055;23;20437;-70
2021/08/29 09:50:21;;;;;;;0.60;0.60;;;17.50;99.90;;;;;;6155193;23;20800;-69
2021/08/29 09:52:47;;;;;;;0.80;0.80;;;17.60;99.90;;;;;;6155031;23;20729;-69
2021/08/29 09:55:26;;;;;;;0.70;0.70;;;17.70;99.90;;;;;;6155126;23;20466;-69
2021/08/29 09:57:54;;;;;;;0.87;0.87;;;17.70;99.90;;;;;;6155088;23;20482;-69
2021/08/29 10:00:21;;;;;;;0.60;0.60;;;17.70;99.90;;;;;;6154665;23;20426;-69
2021/08/29 10:03:01;;;;;;;0.50;0.50;;;17.70;99.90;;;;;;6154011;23;20787;-70
2021/08/29 10:05:28;;;;;;;0.70;0.70;;;17.70;99.90;;;;;;6154576;23;20438;-70
2021/08/29 10:08:00;;;;;;;0.57;0.57;;;17.60;99.90;;;;;;6154259;23;20438;-69
2021/08/29 10:10:29;;;;;;;0.40;0.40;;;17.70;99.90;;;;;;6154813;23;20449;-69
2021/08/29 10:12:58;;;;;;;0.73;0.73;;;17.70;99.90;;;;;;6154259;23;20433;-70
2021/08/29 10:15:25;;;;;;;0.53;0.53;;;17.80;99.90;;;;;;6153954;23;20935;-70
2021/08/29 10:17:58;;;;;;;0.70;0.70;;;17.80;99.90;;;;;;6153728;23;20544;-70
2021/08/29 10:20:26;;;;;;;0.60;0.60;;;17.80;99.90;;;;;;6154128;23;20411;-70
2021/08/29 10:22:53;;;;;;;1.30;1.30;;;17.80;99.90;;;;;;6154176;23;20927;-70
2021/08/29 10:25:21;;;;;;;0.70;0.70;;;17.70;99.90;;;;;;6164617;23;20431;-70
2021/08/29 10:27:51;;;;;;;0.70;0.70;;;17.90;99.90;;;;;;6154336;23;20924;-70
2021/08/29 10:30:21;;;;;;;0.77;0.77;;;18.00;99.90;;;;;;6155705;23;20407;-71
2021/08/29 10:32:49;;;;;;;0.80;0.80;;;18.10;99.90;;;;;;6156163;23;20451;-70
2021/08/29 10:35:16;;;;;;;0.80;0.80;;;18.20;99.90;;;;;;6156734;23;20449;-70
2021/08/29 10:37:47;;;;;;;0.93;0.93;;;18.30;99.90;;;;;;6156922;23;20446;-70
2021/08/29 10:40:15;;;;;;;0.70;0.70;;;18.40;99.90;;;;;;6156815;23;20411;-71
2021/08/29 10:42:44;;;;;;;0.80;0.80;;;18.40;99.90;;;;;;6166592;23;20426;-70
2021/08/29 10:45:12;;;;;;;0.90;0.90;;;18.50;99.90;;;;;;6155758;23;20432;-70
2021/08/29 10:47:44;;;;;;;0.87;0.87;;;18.40;99.90;;;;;;6155617;23;20481;-70
2021/08/29 10:50:17;;;;;;;1.07;1.07;;;18.40;99.90;;;;;;6156064;23;20410;-70
2021/08/29 10:52:44;;;;;;;0.50;0.50;;;18.30;99.90;;;;;;6158622;23;20418;-70
2021/08/29 10:55:14;;;;;;;0.60;0.60;;;18.20;99.90;;;;;;6157360;23;20418;-71
2021/08/29 10:57:42;;;;;;;1.30;1.30;;;18.30;99.90;;;;;;6160833;23;20494;-70
2021/08/29 11:00:15;;;;;;;1.70;0.87;;;18.40;99.90;;;;;;6161117;23;20423;-70
2021/08/29 11:02:45;;;;;;;0.90;0.87;;;18.40;99.90;;;;;;6168752;23;20553;-71
2021/08/29 11:05:17;;;;;;;0.63;0.63;;;18.40;99.90;;;;;;6157238;23;20414;-72
2021/08/29 11:07:50;;;;;;;0.80;0.80;;;18.30;99.90;;;;;;6167997;23;20414;-71
2021/08/29 11:10:45;;;;;;;1.23;0.70;;;18.30;99.90;;;;;;6156508;23;20429;-70
2021/08/29 11:13:34;;;;;;;1.37;0.77;;;18.20;99.90;;;;;;6155744;23;20410;-70
2021/08/29 11:16:24;;;;;;;0.67;0.67;;;18.20;99.90;;;;;;6136823;23;20820;-69
2021/08/29 11:19:13;;;;;;;1.17;1.17;;;18.30;99.90;;;;;;6155222;23;20445;-69
2021/08/29 11:22:18;;;;;;;1.00;1.00;;;18.30;99.90;;;;;;6156249;23;20453;-69
2021/08/29 11:24:53;;;;;;;1.20;1.10;;;18.40;99.90;;;;;;6155667;23;20438;-69
2021/08/29 11:28:00;;;;;;;0.90;0.90;;;18.50;99.90;;;;;;6156051;23;20485;-70
2021/08/29 11:30:38;;;;;;;1.10;1.10;;;18.70;99.90;;;;;;6155176;23;22703;-70
2021/08/29 11:33:06;;;;;;;0.80;0.80;;;18.70;99.90;;;;;;6155283;23;20758;-69
2021/08/29 11:35:35;;;;;;;1.20;1.20;;;18.90;99.90;;;;;;6156089;23;20440;-69
2021/08/29 11:38:14;;;;;;;1.10;1.10;;;19.10;99.90;;;;;;6155997;23;20442;-68
2021/08/29 11:40:46;;;;;;;1.10;1.10;;;19.20;99.90;;;;;;6156497;23;20442;-70
2021/08/29 11:43:18;;;;;;;1.47;1.37;;;19.10;99.90;;;;;;6156832;23;20521;-69
2021/08/29 11:45:47;;;;;;;2.37;1.70;;;18.90;99.90;;;;;;6156250;23;20442;-69
2021/08/29 11:48:23;;;;;;;1.40;1.40;;;18.90;99.90;;;;;;6156352;23;20485;-69
2021/08/29 11:50:52;;;;;;;1.80;1.80;;;18.80;99.90;;;;;;6156441;23;20449;-70
2021/08/29 11:53:18;;;;;;;1.37;1.37;;;18.80;99.90;;;;;;6155437;23;20423;-70
2021/08/29 11:55:45;;;;;;;2.00;2.00;;;18.80;99.90;;;;;;6155672;23;20755;-69
2021/08/29 11:58:20;;;;;;;2.90;2.80;;;18.70;99.90;;;;;;6156176;23;20450;-70
2021/08/29 12:00:47;;;;;;;2.70;2.70;;;18.80;99.90;;;;;;6155108;23;20786;-69
2021/08/29 12:03:15;;;;;;;4.60;4.40;;;18.80;99.90;;;;;;6154645;23;20431;-70
2021/08/29 12:05:56;;;;;;;4.67;4.30;;;18.80;99.90;;;;;;6155517;23;20948;-70
2021/08/29 12:08:31;;;;;;;4.90;4.50;;;18.80;99.90;;;;;;6155537;23;20439;-69
2021/08/29 12:10:59;;;;;;;5.17;4.80;;;18.90;99.90;;;;;;6154875;23;20442;-69
2021/08/29 12:13:29;;;;;;;4.90;4.50;;;18.90;99.90;;;;;;6155313;23;20427;-69
2021/08/29 12:16:01;;;;;;;4.00;3.80;;;18.80;99.90;;;;;;6154683;23;20407;-70
2021/08/29 12:18:29;;;;;;;5.17;4.77;;;18.50;99.90;;;;;;6154776;23;20434;-69
2021/08/29 12:20:59;;;;;;;5.20;4.90;;;18.10;99.90;;;;;;6155326;23;20443;-70
2021/08/29 12:23:26;;;;;;;5.53;4.50;;;17.80;99.90;;;;;;6155225;23;20423;-70
2021/08/29 12:25:58;;;;;;;6.17;4.73;;;17.80;99.90;;;;;;6155343;23;20423;-69
2021/08/29 12:28:25;;;;;;;5.87;5.40;;;17.60;99.90;;;;;;6154636;23;20419;-70
2021/08/29 12:30:55;;;;;;;5.83;5.43;;;17.40;99.90;;;;;;6154353;23;20526;-71
2021/08/29 12:33:22;;;;;;;6.03;5.53;;;17.40;99.90;;;;;;6154684;23;20423;-71
2021/08/29 12:35:50;;;;;;;5.47;5.13;;;17.40;99.90;;;;;;6155320;23;20431;-71
2021/08/29 12:38:19;;;;;;;6.27;5.70;;;17.40;99.90;;;;;;6155289;23;20493;-71
2021/08/29 12:40:46;;;;;;;5.23;4.93;;;17.40;99.90;;;;;;6154758;23;20786;-71
2021/08/29 12:43:13;;;;;;;4.63;4.37;;;17.30;99.90;;;;;;6154539;23;20457;-71
2021/08/29 12:45:40;;;;;;;5.30;4.90;;;17.20;99.90;;;;;;6154710;23;20536;-71
2021/08/29 12:48:07;;;;;;;6.63;4.90;;;17.10;99.90;;;;;;6154737;23;20764;-71
2021/08/29 12:50:41;;;;;;;5.50;5.07;;;17.10;99.90;;;;;;6156149;23;20528;-72
2021/08/29 12:53:11;;;;;;;5.43;5.00;;;17.10;99.90;;;;;;6154479;23;20406;-71
2021/08/29 12:55:41;;;;;;;5.50;5.10;;;17.20;99.90;;;;;;6155154;23;20491;-72
2021/08/29 12:58:13;;;;;;;5.23;4.73;;;17.20;99.90;;;;;;6154653;23;20509;-71
2021/08/29 13:00:42;;;;;;;5.50;5.10;;;17.10;99.90;;;;;;6155181;23;20497;-71
2021/08/29 13:03:09;;;;;;;4.83;4.53;;;17.10;99.90;;;;;;6156482;23;20497;-71
2021/08/29 13:05:37;;;;;;;5.00;4.70;;;17.10;99.90;;;;;;6154559;23;20907;-71
2021/08/29 13:08:05;;;;;;;6.20;5.70;;;17.20;99.90;;;;;;6154858;23;20445;-71
2021/08/29 13:10:32;;;;;;;5.57;5.17;;;17.20;99.90;;;;;;6154488;23;20558;-71
2021/08/29 13:13:11;;;;;;;5.67;5.20;;;17.20;99.90;;;;;;6154681;23;20438;-72
2021/08/29 13:15:39;;;;;;;5.20;4.70;;;17.10;99.90;;;;;;6154572;23;20729;-71
2021/08/29 13:18:07;;;;;;;5.43;4.93;;;17.10;99.90;;;;;;6154289;23;20451;-71
2021/08/29 13:20:36;;;;;;;4.93;4.50;;;17.10;99.90;;;;;;6154605;23;20512;-71
2021/08/29 13:23:03;;;;;;;6.40;5.80;;;17.10;99.90;;;;;;6154776;23;20426;-71
2021/08/29 13:25:30;;;;;;;5.43;5.10;;;17.20;99.90;;;;;;6154748;23;20430;-70
2021/08/29 13:27:59;;;;;;;6.80;4.63;;;17.20;99.90;;;;;;6154423;23;20896;-72
2021/08/29 13:30:29;;;;;;;5.90;5.50;;;17.10;99.90;;;;;;6154153;23;20431;-72
2021/08/29 13:32:56;;;;;;;7.30;6.70;;;17.10;99.90;;;;;;6153944;23;20422;-72
2021/08/29 13:35:24;;;;;;;7.70;7.00;;;17.10;99.90;;;;;;6154649;23;20418;-72
2021/08/29 13:37:54;;;;;;;8.40;6.80;;;17.10;99.90;;;;;;6154974;23;20477;-72
2021/08/29 13:40:22;;;;;;;8.80;8.10;;;17.10;99.90;;;;;;6154665;23;20427;-71
2021/08/29 13:42:51;;;;;;;9.43;8.53;;;17.10;99.90;;;;;;6154540;23;20423;-71
2021/08/29 13:45:21;;;;;;;11.20;9.33;;;17.20;99.90;;;;;;6153726;23;20426;-71
2021/08/29 13:47:49;;;;;;;10.37;8.23;;;17.20;99.90;;;;;;6154217;23;20407;-71
2021/08/29 13:50:16;;;;;;;8.50;7.70;;;17.20;99.90;;;;;;6154602;23;20430;-71
2021/08/29 13:52:42;;;;;;;11.00;9.00;;;17.20;99.90;;;;;;6154999;23;20419;-71
2021/08/29 13:55:14;;;;;;;10.60;9.23;;;17.20;99.90;;;;;;6155794;23;20427;-71
2021/08/29 13:57:40;;;;;;;10.67;9.60;;;17.20;99.90;;;;;;6155550;23;20438;-71
2021/08/29 14:00:08;;;;;;;11.40;8.20;;;17.10;99.90;;;;;;6155200;23;20444;-71
2021/08/29 14:02:35;;;;;;;16.37;10.90;;;17.10;99.90;;;;;;6154552;23;20934;-71
2021/08/29 14:05:03;;;;;;;11.50;10.30;;;17.10;99.90;;;;;;6154174;23;20738;-71
2021/08/29 14:07:30;;;;;;;12.33;11.03;;;17.00;99.90;;;;;;6154629;23;20419;-71
2021/08/29 14:09:56;;;;;;;13.03;9.77;;;17.00;99.90;;;;;;6154712;23;20786;-72
2021/08/29 14:12:23;;;;;;;13.73;10.60;;;17.00;99.90;;;;;;6153838;23;20438;-71
2021/08/29 14:14:49;;;;;;;9.87;8.60;;;17.00;99.90;;;;;;6153654;23;20422;-71
2021/08/29 14:17:16;;;;;;;13.50;10.37;;;17.00;99.90;;;;;;6153931;23;20513;-71
2021/08/29 14:19:43;;;;;;;13.40;11.30;;;17.00;99.90;;;;;;6154272;23;20419;-72
2021/08/29 14:22:11;;;;;;;12.97;11.67;;;17.00;99.90;;;;;;6154103;23;20446;-72
2021/08/29 14:24:38;;;;;;;11.93;10.60;;;17.00;99.90;;;;;;6154360;23;20422;-72
2021/08/29 14:27:05;;;;;;;12.20;11.00;;;17.00;99.90;;;;;;6154870;23;20496;-72
2021/08/29 14:29:34;;;;;;;12.77;11.50;;;17.00;99.90;;;;;;6153795;23;20423;-72
2021/08/29 14:32:01;;;;;;;10.73;9.70;;;17.00;99.90;;;;;;6154471;23;20529;-72
2021/08/29 14:34:27;;;;;;;13.73;11.30;;;17.00;99.90;;;;;;6153166;23;20772;-72
2021/08/29 14:36:54;;;;;;;12.53;11.20;;;17.10;99.90;;;;;;6154167;23;20901;-72
2021/08/29 14:39:22;;;;;;;12.80;11.57;;;17.20;99.90;;;;;;6154304;23;20426;-72
2021/08/29 14:41:49;;;;;;;12.50;10.23;;;17.20;99.90;;;;;;6153815;23;21027;-72
2021/08/29 14:44:15;;;;;;;10.50;9.47;;;17.20;99.90;;;;;;6153081;23;20880;-70
2021/08/29 14:46:42;;;;;;;11.67;10.50;;;17.20;99.90;;;;;;6154412;23;20445;-72
2021/08/29 14:49:09;;;;;;;13.67;9.30;;;17.20;99.90;;;;;;6152881;23;20426;-72
2021/08/29 14:51:35;;;;;;;10.90;9.30;;;17.10;99.90;;;;;;6153868;23;20955;-72
2021/08/29 14:54:02;;;;;;;12.47;11.27;;;17.10;99.90;;;;;;6153815;23;20423;-71
2021/08/29 14:56:30;;;;;;;14.73;11.33;;;17.10;99.90;;;;;;6153851;23;20430;-72
2021/08/29 14:58:57;;;;;;;10.53;9.50;;;17.20;99.90;;;;;;6153439;23;21307;-71
2021/08/29 15:01:24;;;;;;;10.63;9.47;;;17.20;99.90;;;;;;6153644;23;20457;-70
2021/08/29 15:03:51;;;;;;;9.00;8.20;;;17.20;99.90;;;;;;6152787;23;20478;-71
2021/08/29 15:06:17;;;;;;;10.23;9.20;;;17.20;99.90;;;;;;6165588;23;20957;-71
2021/08/29 15:08:44;;;;;;;10.57;9.43;;;17.20;99.90;;;;;;6164458;23;20755;-72
2021/08/29 15:11:11;;;;;;;10.87;9.20;;;17.20;99.90;;;;;;6154630;23;20450;-72
2021/08/29 15:13:39;;;;;;;13.70;9.80;;;17.20;99.90;;;;;;6153712;23;20489;-71
2021/08/29 15:16:06;;;;;;;11.13;9.97;;;17.20;99.90;;;;;;6153972;23;20427;-70
2021/08/29 15:18:33;;;;;;;11.80;9.53;;;17.20;99.90;;;;;;6155070;23;20468;-69
2021/08/29 15:21:01;;;;;;;11.17;10.03;;;17.20;99.90;;;;;;6155900;23;20777;-68
2021/08/29 15:23:28;;;;;;;11.77;10.67;;;17.20;99.90;;;;;;6155776;23;20430;-70
2021/08/29 15:25:55;;;;;;;13.03;11.03;;;17.20;99.90;;;;;;6155832;23;20427;-69
2021/08/29 15:28:22;;;;;;;12.30;11.00;;;17.20;99.90;;;;;;6155786;23;20515;-68
2021/08/29 15:30:50;;;;;;;11.03;9.93;;;17.20;99.90;;;;;;6155637;23;20458;-70
2021/08/29 15:33:16;;;;;;;11.13;10.00;;;17.20;99.90;;;;;;6158103;23;20411;-69
2021/08/29 15:35:43;;;;;;;14.20;10.37;;;17.20;99.90;;;;;;6156522;23;20445;-70
2021/08/29 15:38:10;;;;;;;12.10;10.90;;;17.20;99.90;;;;;;6165386;23;20453;-70
2021/08/29 15:40:38;;;;;;;12.17;10.30;;;17.20;99.90;;;;;;6155771;23;20446;-70
2021/08/29 15:43:06;;;;;;;9.77;8.57;;;17.20;99.90;;;;;;6155321;23;20422;-70
2021/08/29 15:45:35;;;;;;;11.17;10.07;;;17.20;99.90;;;;;;6155097;23;20763;-70
2021/08/29 15:48:04;;;;;;;11.43;9.60;;;17.20;99.90;;;;;;6154990;23;20449;-70
2021/08/29 15:50:31;;;;;;;10.40;9.30;;;17.20;99.90;;;;;;6155785;23;20453;-71
2021/08/29 15:52:58;;;;;;;11.90;9.83;;;17.20;99.90;;;;;;6154908;23;20729;-72
2021/08/29 15:55:38;;;;;;;13.00;11.07;;;17.20;99.90;;;;;;6157584;23;20450;-75
2021/08/29 15:58:05;;;;;;;18.43;11.37;;;17.10;99.90;;;;;;6166702;23;20443;-72
2021/08/29 16:00:32;;;;;;;12.80;10.37;;;17.10;99.90;;;;;;6154976;23;20497;-71
2021/08/29 16:02:59;;;;;;;11.30;10.10;;;17.10;99.90;;;;;;6155486;23;20734;-71
2021/08/29 16:05:28;;;;;;;13.70;9.67;;;17.00;99.90;;;;;;6155339;23;20431;-72
2021/08/29 16:07:55;;;;;;;12.83;10.60;;;17.00;99.90;;;;;;6154688;23;20469;-70
2021/08/29 16:10:24;;;;;;;13.80;10.23;;;17.00;99.90;;;;;;6155211;23;20423;-71
2021/08/29 16:12:51;;;;;;;12.70;9.90;;;17.00;99.90;;;;;;6155330;23;20509;-71
2021/08/29 16:15:18;;;;;;;13.47;11.10;;;16.90;99.90;;;;;;6164807;23;20930;-71
2021/08/29 16:17:46;;;;;;;14.57;11.47;;;17.00;99.90;;;;;;6154581;23;20526;-71
2021/08/29 16:20:14;;;;;;;12.40;11.10;;;17.00;99.90;;;;;;6154669;23;20423;-71
2021/08/29 16:22:42;;;;;;;11.90;10.67;;;17.00;99.90;;;;;;6154970;23;20427;-71
2021/08/29 16:25:09;;;;;;;11.93;10.73;;;17.00;99.90;;;;;;6154897;23;20442;-71
2021/08/29 16:27:35;;;;;;;12.40;10.97;;;17.00;99.90;;;;;;6155134;23;20474;-71
2021/08/29 16:30:03;;;;;;;12.70;11.40;;;17.00;99.90;;;;;;6155521;23;20430;-72
2021/08/29 16:32:30;;;;;;;20.30;12.67;;;16.90;99.90;;;;;;6154959;23;20450;-71
2021/08/29 16:34:56;;;;;;;12.70;11.40;;;17.00;99.90;;;;;;6158760;23;20423;-72
2021/08/29 16:37:23;;;;;;;17.80;12.23;;;17.00;99.90;;;;;;6160542;23;20446;-72
2021/08/29 16:39:51;;;;;;;13.30;11.97;;;17.00;99.90;;;;;;6155660;23;20451;-71
2021/08/29 16:42:18;;;;;;;13.23;11.17;;;17.00;99.90;;;;;;6154702;23;20450;-71
2021/08/29 16:44:45;;;;;;;15.60;12.83;;;17.00;99.90;;;;;;6154341;23;20423;-70
2021/08/29 16:47:12;;;;;;;14.57;12.13;;;17.00;99.90;;;;;;6154759;23;20450;-70
2021/08/29 16:49:38;;;;;;;17.70;13.90;;;16.90;99.90;;;;;;6154393;23;20426;-71
2021/08/29 16:52:06;;;;;;;14.07;11.70;;;17.00;99.90;;;;;;6154713;23;20443;-70